Time;durP1;ratioP1;P1;durP2;ratioP2;P2;SDS_P1;SDS_P2;PMS_P1;PMS_P2;Temp;Humidity;BMP_temperature;BMP_pressure;BME280_temperature;BME280_humidity;BME280_pressure;Samples;Min_cycle;Max_cycle;Signal;HPM_P1;HPM_P2
2021/05/30 00:00:12;;;;;;;4.57;2.03;;;;;;;12.49;39.03;92992.66;4986743;28;20069;-76
2021/05/30 00:02:38;;;;;;;5.95;2.00;;;;;;;12.45;39.00;92994.31;4972356;28;20523;-76
2021/05/30 00:05:05;;;;;;;5.28;2.13;;;;;;;12.41;38.99;92986.22;4972312;28;20117;-76
2021/05/30 00:07:31;;;;;;;4.85;2.05;;;;;;;12.46;39.18;92998.50;4971860;28;20054;-76
2021/05/30 00:09:57;;;;;;;4.78;2.08;;;;;;;12.44;38.76;92998.00;4969805;28;20050;-76
2021/05/30 00:12:22;;;;;;;5.22;2.20;;;;;;;12.43;38.70;93001.72;4954820;28;20054;-76
2021/05/30 00:14:49;;;;;;;4.05;2.10;;;;;;;12.43;37.92;93004.34;4972493;28;20038;-76
2021/05/30 00:17:15;;;;;;;4.47;2.30;;;;;;;12.38;39.36;92999.91;4974917;28;20042;-76
2021/05/30 00:19:42;;;;;;;4.60;2.10;;;;;;;12.32;39.53;93011.56;4975590;28;20081;-76
2021/05/30 00:22:08;;;;;;;4.57;1.98;;;;;;;12.26;39.46;92997.72;4990834;28;20138;-76
2021/05/30 00:24:34;;;;;;;3.85;2.08;;;;;;;12.23;38.96;92998.28;4990913;28;20470;-76
2021/05/30 00:27:00;;;;;;;3.38;2.00;;;;;;;12.23;38.97;93008.78;4958180;28;20050;-75
2021/05/30 00:29:26;;;;;;;3.55;1.88;;;;;;;12.22;38.99;93004.59;4975766;28;20039;-76
2021/05/30 00:31:51;;;;;;;6.55;2.08;;;;;;;12.21;39.33;93005.66;4974387;28;20109;-76
2021/05/30 00:34:17;;;;;;;5.43;2.50;;;;;;;12.19;39.80;93013.03;4975772;28;20144;-76
2021/05/30 00:36:43;;;;;;;5.10;2.00;;;;;;;12.18;39.79;93014.13;4974334;28;20039;-76
2021/05/30 00:39:09;;;;;;;5.22;2.00;;;;;;;12.27;37.69;93009.00;4974121;28;20409;-76
2021/05/30 00:41:34;;;;;;;6.18;2.70;;;;;;;12.32;37.65;93010.78;4975472;28;20050;-76
2021/05/30 00:44:00;;;;;;;4.88;2.10;;;;;;;12.37;37.63;93018.59;4958474;28;20103;-76
2021/05/30 00:46:29;;;;;;;4.05;2.08;;;;;;;12.41;37.11;93015.13;4975175;28;20113;-76
2021/05/30 00:48:56;;;;;;;3.70;1.85;;;;;;;12.47;37.15;93018.44;4957957;28;20058;-76
2021/05/30 00:51:21;;;;;;;4.95;2.10;;;;;;;12.49;37.36;93026.81;4975302;28;20517;-76
2021/05/30 00:53:47;;;;;;;6.60;2.30;;;;;;;12.50;37.21;93031.00;4975377;28;20132;-76
2021/05/30 00:56:15;;;;;;;5.43;1.95;;;;;;;12.61;36.97;93029.81;4975255;28;20035;-76
2021/05/30 00:58:41;;;;;;;4.65;2.08;;;;;;;12.61;37.15;93024.56;4976545;28;20054;-76
2021/05/30 01:01:07;;;;;;;4.00;2.08;;;;;;;12.60;37.29;93037.97;4974973;28;20086;-76
2021/05/30 01:03:37;;;;;;;5.57;2.20;;;;;;;12.59;37.24;93033.78;4975566;28;20137;-76
2021/05/30 01:06:04;;;;;;;3.58;2.00;;;;;;;12.58;37.16;93032.19;4974898;28;20417;-76
2021/05/30 01:08:30;;;;;;;3.50;1.98;;;;;;;12.63;36.93;93032.94;4972274;28;20047;-76
2021/05/30 01:10:58;;;;;;;4.55;2.10;;;;;;;12.66;37.14;93034.97;4957487;28;20054;-76
2021/05/30 01:13:26;;;;;;;8.60;2.10;;;;;;;12.63;36.59;93032.94;4957221;28;20054;-76
2021/05/30 01:15:53;;;;;;;4.95;1.90;;;;;;;12.66;37.32;93032.34;4974100;28;20046;-76
2021/05/30 01:18:23;;;;;;;4.90;2.20;;;;;;;12.62;36.87;93031.34;4974707;28;20556;-76
2021/05/30 01:20:50;;;;;;;4.82;1.92;;;;;;;12.60;37.38;93030.06;4957482;28;20490;-76
2021/05/30 01:23:18;;;;;;;4.88;2.08;;;;;;;12.56;37.13;93032.47;4989608;28;20498;-76
2021/05/30 01:25:45;;;;;;;6.22;2.10;;;;;;;12.54;37.27;93026.75;4956712;28;20057;-77
2021/05/30 01:28:11;;;;;;;4.00;2.00;;;;;;;12.52;37.25;93035.97;4955576;28;20039;-77
2021/05/30 01:30:37;;;;;;;3.38;1.90;;;;;;;12.48;37.28;93035.75;4941405;28;20055;-77
2021/05/30 01:33:04;;;;;;;4.45;2.03;;;;;;;12.45;37.39;93031.06;4974654;28;20043;-76
2021/05/30 01:35:30;;;;;;;6.97;2.10;;;;;;;12.45;37.70;93031.06;4974617;28;20049;-76
2021/05/30 01:37:56;;;;;;;4.55;2.05;;;;;;;12.42;37.65;93042.13;4989393;28;20031;-76
2021/05/30 01:40:24;;;;;;;4.25;2.13;;;;;;;12.38;37.46;93035.88;4974354;28;20039;-76
2021/05/30 01:42:52;;;;;;;3.78;1.77;;;;;;;12.35;38.12;93041.72;4957377;28;20042;-76
2021/05/30 01:45:19;;;;;;;4.28;2.00;;;;;;;12.31;37.70;93040.72;4974360;28;20101;-76
2021/05/30 01:47:46;;;;;;;3.30;1.95;;;;;;;12.28;36.82;93042.06;4988169;28;20114;-76
2021/05/30 01:50:21;;;;;;;3.88;2.00;;;;;;;12.28;36.57;93045.47;4974335;28;20478;-76
2021/05/30 01:52:47;;;;;;;4.00;2.00;;;;;;;12.24;37.78;93051.56;4974199;28;20054;-76
2021/05/30 01:55:44;;;;;;;4.13;2.00;;;;;;;12.19;37.87;93041.91;4974765;28;20022;-76
2021/05/30 01:58:03;;;;;;;4.35;1.90;;;;;;;12.13;38.35;93040.41;4972772;28;20417;-76
2021/05/30 02:00:29;;;;;;;4.75;2.05;;;;;;;12.07;39.01;93044.16;4956390;28;20038;-76
2021/05/30 02:02:56;;;;;;;5.82;2.20;;;;;;;11.99;41.51;93050.03;4974019;28;20081;-76
2021/05/30 02:05:23;;;;;;;3.72;1.85;;;;;;;11.86;42.03;93046.97;4972809;28;20030;-76
2021/05/30 02:07:50;;;;;;;5.18;3.05;;;;;;;11.80;43.63;93049.97;4973563;28;20413;-76
2021/05/30 02:10:18;;;;;;;9.10;4.25;;;;;;;11.99;52.80;93050.03;4955991;28;20411;-76
2021/05/30 02:12:49;;;;;;;10.20;5.78;;;;;;;12.04;58.43;93052.59;4954487;29;20130;-76
2021/05/30 02:15:15;;;;;;;8.15;4.65;;;;;;;11.99;58.89;93052.66;4937207;29;20137;-77
2021/05/30 02:17:41;;;;;;;5.57;3.03;;;;;;;11.90;54.83;93046.47;4954223;29;20406;-76
2021/05/30 02:20:09;;;;;;;5.30;2.70;;;;;;;11.77;51.37;93053.91;4954185;29;20058;-76
2021/05/30 02:22:35;;;;;;;6.53;2.78;;;;;;;11.68;50.98;93050.31;4968865;28;20537;-76
2021/05/30 02:25:00;;;;;;;4.45;2.45;;;;;;;11.56;50.81;93040.22;4954268;29;20113;-76
2021/05/30 02:27:26;;;;;;;6.22;2.65;;;;;;;11.45;50.88;93036.94;4954151;29;20087;-76
2021/05/30 02:29:52;;;;;;;8.30;3.95;;;;;;;11.36;52.39;93038.59;4954145;29;20035;-75
2021/05/30 02:32:18;;;;;;;6.88;2.65;;;;;;;11.30;54.17;93042.31;4954132;29;20408;-76
2021/05/30 02:34:44;;;;;;;6.55;3.20;;;;;;;11.23;53.88;93044.47;4968802;28;20129;-75
2021/05/30 02:37:11;;;;;;;6.25;3.35;;;;;;;11.17;54.73;93040.34;4953907;29;20410;-76
2021/05/30 02:39:38;;;;;;;7.93;3.60;;;;;;;11.08;55.79;93036.75;4953490;28;20042;-76
2021/05/30 02:42:05;;;;;;;8.85;4.05;;;;;;;11.03;57.98;93041.00;4953921;29;20055;-76
2021/05/30 02:44:31;;;;;;;9.57;4.43;;;;;;;11.01;61.77;93042.28;4953781;29;20059;-76
2021/05/30 02:46:56;;;;;;;12.70;5.60;;;;;;;11.00;64.12;93043.38;4968375;28;20130;-76
2021/05/30 02:49:24;;;;;;;9.45;5.85;;;;;;;10.98;63.52;93048.09;4936372;29;20503;-76
2021/05/30 02:51:50;;;;;;;11.82;6.55;;;;;;;10.94;64.47;93042.63;4953352;29;20154;-77
2021/05/30 02:54:16;;;;;;;14.50;6.43;;;;;;;10.93;64.40;93042.91;4968547;28;20055;-77
2021/05/30 02:56:42;;;;;;;12.13;6.60;;;;;;;10.84;64.95;93040.09;4953762;29;20050;-77
2021/05/30 02:59:08;;;;;;;15.13;5.70;;;;;;;10.81;66.33;93045.88;4953677;29;20126;-77
2021/05/30 03:01:34;;;;;;;11.93;5.55;;;;;;;10.75;65.97;93049.59;4953849;29;20039;-76
2021/05/30 03:04:00;;;;;;;11.75;6.40;;;;;;;10.72;66.07;93050.13;4953709;29;20361;-77
2021/05/30 03:06:26;;;;;;;11.35;6.18;;;;;;;10.69;66.80;93048.03;4953215;29;20066;-77
2021/05/30 03:08:52;;;;;;;10.73;6.78;;;;;;;10.69;67.49;93050.66;4955619;28;20081;-77
2021/05/30 03:11:19;;;;;;;11.40;6.60;;;;;;;10.70;67.90;93049.63;4987528;28;20113;-77
2021/05/30 03:13:45;;;;;;;14.82;7.38;;;;;;;10.72;67.62;93056.16;4987726;28;20473;-77
2021/05/30 03:16:11;;;;;;;10.85;6.25;;;;;;;10.76;67.26;93053.75;4955584;28;20122;-77
2021/05/30 03:18:36;;;;;;;10.57;6.45;;;;;;;10.81;67.61;93056.34;4955244;28;20057;-77
2021/05/30 03:21:02;;;;;;;10.05;6.10;;;;;;;10.86;67.55;93050.31;4972585;28;20517;-77
2021/05/30 03:23:28;;;;;;;10.50;6.00;;;;;;;10.85;67.45;93044.25;4972369;28;20097;-77
2021/05/30 03:25:54;;;;;;;15.18;6.53;;;;;;;10.86;67.01;93045.06;4987473;28;20047;-77
2021/05/30 03:28:19;;;;;;;10.13;5.93;;;;;;;10.84;66.63;93047.94;4972259;28;20498;-77
2021/05/30 03:30:45;;;;;;;9.27;5.32;;;;;;;10.82;67.16;93045.59;4955114;28;20057;-77
2021/05/30 03:33:11;;;;;;;8.60;5.18;;;;;;;10.82;66.63;93055.28;4972447;28;20045;-77
2021/05/30 03:35:37;;;;;;;9.82;5.90;;;;;;;10.84;67.03;93042.72;4972371;28;20121;-77
2021/05/30 03:38:06;;;;;;;8.60;5.25;;;;;;;10.83;67.04;93047.16;4987294;28;20042;-76
2021/05/30 03:40:38;;;;;;;10.85;5.47;;;;;;;10.79;67.95;93043.53;4971869;28;20050;-77
2021/05/30 03:43:04;;;;;;;10.20;5.93;;;;;;;10.80;68.22;93045.06;4954308;28;20047;-77
2021/05/30 03:45:31;;;;;;;10.88;5.18;;;;;;;10.79;68.46;93050.59;4972129;28;20097;-77
2021/05/30 03:47:56;;;;;;;9.00;5.32;;;;;;;10.78;68.07;93043.78;4986934;28;20053;-76
2021/05/30 03:50:22;;;;;;;8.32;4.93;;;;;;;10.82;68.24;93050.06;4971456;28;20047;-77
2021/05/30 03:52:48;;;;;;;9.00;5.05;;;;;;;10.86;68.41;93045.84;4970173;28;20054;-77
2021/05/30 03:55:14;;;;;;;9.20;5.03;;;;;;;10.91;68.24;93048.41;4971922;28;20121;-77
2021/05/30 03:57:41;;;;;;;9.88;4.72;;;;;;;10.97;67.64;93055.19;4972127;28;20061;-77
2021/05/30 04:00:16;;;;;;;9.90;4.25;;;;;;;11.04;67.58;93047.00;4954690;28;20042;-76
2021/05/30 04:02:42;;;;;;;10.32;4.95;;;;;;;11.12;67.03;93053.47;4971559;28;20039;-77
2021/05/30 04:05:09;;;;;;;13.40;4.70;;;;;;;11.24;66.32;93057.31;4954786;28;20134;-77
2021/05/30 04:07:38;;;;;;;8.02;4.38;;;;;;;11.36;65.90;93059.56;4954562;28;20584;-77
2021/05/30 04:10:07;;;;;;;9.45;4.80;;;;;;;11.46;65.63;93050.84;4970877;28;20055;-77
2021/05/30 04:12:34;;;;;;;9.52;4.80;;;;;;;11.52;65.39;93056.78;4952745;29;20072;-77
2021/05/30 04:14:59;;;;;;;8.32;4.53;;;;;;;11.55;66.01;93054.41;4952724;29;20093;-77
2021/05/30 04:17:25;;;;;;;10.27;5.03;;;;;;;11.59;65.36;93052.00;4952795;29;20454;-77
2021/05/30 04:19:51;;;;;;;8.20;4.15;;;;;;;11.62;66.19;93047.00;4952583;29;20524;-77
2021/05/30 04:22:16;;;;;;;7.70;4.05;;;;;;;11.70;66.06;93050.84;4935216;29;20047;-77
2021/05/30 04:24:42;;;;;;;7.88;4.28;;;;;;;11.68;65.58;93050.31;4935168;29;20051;-76
2021/05/30 04:27:08;;;;;;;7.60;4.43;;;;;;;11.71;65.15;93049.78;4952530;29;20446;-76
2021/05/30 04:29:33;;;;;;;9.27;4.68;;;;;;;11.68;64.36;93047.72;4935052;29;20044;-77
2021/05/30 04:32:02;;;;;;;7.78;4.40;;;;;;;11.67;63.55;93049.56;4935258;29;20066;-77
2021/05/30 04:34:27;;;;;;;9.43;4.40;;;;;;;11.69;64.38;93043.28;4952373;29;20050;-77
2021/05/30 04:36:53;;;;;;;15.80;4.90;;;;;;;11.78;63.23;93050.22;4952119;29;20051;-77
2021/05/30 04:39:19;;;;;;;6.78;4.20;;;;;;;11.74;63.84;93049.22;4952047;29;20047;-77
2021/05/30 04:41:44;;;;;;;8.02;4.40;;;;;;;11.79;63.21;93051.78;4952189;29;20094;-77
2021/05/30 04:44:10;;;;;;;7.35;4.00;;;;;;;11.67;63.35;93054.81;4935995;29;20047;-77
2021/05/30 04:46:36;;;;;;;8.75;4.13;;;;;;;11.74;63.81;93056.31;4936591;29;20062;-77
2021/05/30 04:49:01;;;;;;;6.32;3.85;;;;;;;11.71;63.93;93056.84;4919355;29;20047;-77
2021/05/30 04:51:27;;;;;;;7.30;4.00;;;;;;;11.56;62.86;93058.59;4919148;29;20055;-75
2021/05/30 04:53:55;;;;;;;7.32;4.10;;;;;;;11.63;62.82;93058.25;4952776;29;20035;-75
2021/05/30 04:56:22;;;;;;;8.65;4.40;;;;;;;11.67;63.81;93056.66;4952113;29;20039;-75
2021/05/30 04:58:51;;;;;;;9.38;4.35;;;;;;;11.71;64.30;93047.16;4952287;29;20111;-75
2021/05/30 05:01:18;;;;;;;8.95;4.40;;;;;;;11.77;64.22;93046.03;4952433;28;20458;-75
2021/05/30 05:03:43;;;;;;;8.35;4.05;;;;;;;11.83;64.05;93049.41;4955909;29;20039;-75
2021/05/30 05:06:10;;;;;;;7.53;4.38;;;;;;;11.85;64.14;93050.69;4938586;29;20585;-75
2021/05/30 05:08:36;;;;;;;9.43;4.53;;;;;;;11.89;64.89;93050.94;4954335;28;20050;-76
2021/05/30 05:11:02;;;;;;;9.85;4.30;;;;;;;11.92;65.22;93055.63;4975100;28;20137;-75
2021/05/30 05:13:28;;;;;;;8.10;4.30;;;;;;;11.93;64.75;93045.91;4957831;28;20549;-75
2021/05/30 05:15:54;;;;;;;9.55;5.43;;;;;;;11.95;66.31;93044.56;4974980;28;20043;-76
2021/05/30 05:18:22;;;;;;;11.25;5.72;;;;;;;11.95;66.33;93046.41;4974531;28;20043;-76
2021/05/30 05:20:49;;;;;;;8.55;5.30;;;;;;;11.94;67.10;93050.09;4956349;28;20046;-76
2021/05/30 05:23:18;;;;;;;7.68;4.95;;;;;;;11.90;67.21;93041.22;4974439;28;20047;-76
2021/05/30 05:25:44;;;;;;;7.53;4.78;;;;;;;11.87;67.80;93043.34;4974582;28;20038;-76
2021/05/30 05:28:10;;;;;;;9.15;5.18;;;;;;;11.85;68.72;93042.03;4974567;28;20050;-75
2021/05/30 05:30:36;;;;;;;11.02;5.63;;;;;;;11.85;68.70;93042.81;4957244;28;20039;-75
2021/05/30 05:33:02;;;;;;;10.93;5.57;;;;;;;11.86;68.94;93039.09;4974773;28;20517;-75
2021/05/30 05:35:28;;;;;;;9.18;4.97;;;;;;;11.91;68.31;93035.69;4957239;28;20053;-75
2021/05/30 05:37:55;;;;;;;8.10;5.55;;;;;;;11.93;68.53;93040.66;4974559;28;20035;-75
2021/05/30 05:40:22;;;;;;;11.32;5.60;;;;;;;11.92;69.03;93039.88;4925266;28;20042;-75
2021/05/30 05:42:49;;;;;;;10.82;5.45;;;;;;;11.89;69.51;93043.06;4957083;28;20047;-76
2021/05/30 05:45:16;;;;;;;12.48;4.97;;;;;;;11.97;69.10;93036.41;4974305;28;20528;-76
2021/05/30 05:47:43;;;;;;;11.05;6.35;;;;;;;12.01;69.04;93048.69;4973789;28;20049;-75
2021/05/30 05:50:11;;;;;;;9.02;5.40;;;;;;;12.07;69.62;93046.78;4955977;28;20039;-75
2021/05/30 05:52:38;;;;;;;8.98;5.50;;;;;;;12.11;69.01;93042.53;4973229;28;20437;-77
2021/05/30 05:55:06;;;;;;;10.25;5.43;;;;;;;12.11;69.45;93050.41;4984175;28;20497;-76
2021/05/30 05:57:31;;;;;;;11.55;5.40;;;;;;;12.14;69.12;93041.97;4979875;28;20592;-77
2021/05/30 05:59:57;;;;;;;11.45;5.57;;;;;;;12.24;68.80;93048.94;4948318;28;20134;-76
2021/05/30 06:02:23;;;;;;;10.82;5.60;;;;;;;12.25;69.47;93045.25;4960518;28;20050;-75
2021/05/30 06:04:48;;;;;;;11.20;5.82;;;;;;;12.29;69.61;93044.41;4988613;28;20400;-75
2021/05/30 06:07:14;;;;;;;10.00;5.38;;;;;;;12.38;68.95;93056.91;4967714;28;20509;-75
2021/05/30 06:09:39;;;;;;;9.32;5.43;;;;;;;12.38;69.75;93055.03;4959887;28;20060;-75
2021/05/30 06:12:06;;;;;;;8.57;5.30;;;;;;;12.50;68.94;93054.66;4975236;28;20055;-75
2021/05/30 06:14:32;;;;;;;8.38;5.53;;;;;;;12.52;68.90;93047.25;4981071;28;20050;-76
2021/05/30 06:16:57;;;;;;;11.32;6.18;;;;;;;12.43;69.47;93048.97;4973577;28;20046;-77
2021/05/30 06:19:25;;;;;;;9.98;5.78;;;;;;;12.61;68.82;93050.81;4956568;28;20035;-76
2021/05/30 06:21:51;;;;;;;9.43;5.60;;;;;;;12.61;69.11;93042.13;4956082;28;20062;-77
2021/05/30 06:24:16;;;;;;;9.80;5.40;;;;;;;12.83;68.44;93046.81;4956067;28;20039;-76
2021/05/30 06:26:42;;;;;;;9.48;5.53;;;;;;;13.28;67.07;93039.28;4959031;28;20508;-77
2021/05/30 06:29:08;;;;;;;10.55;5.10;;;;;;;13.49;65.90;93039.75;4974348;28;20039;-78
2021/05/30 06:31:33;;;;;;;8.60;5.22;;;;;;;13.63;65.52;93045.78;4983857;28;20069;-76
2021/05/30 06:33:59;;;;;;;11.98;5.43;;;;;;;13.60;65.00;93042.94;4986679;28;20048;-76
2021/05/30 06:36:25;;;;;;;9.70;5.57;;;;;;;13.56;65.32;93047.25;4979369;28;20064;-76
2021/05/30 06:38:50;;;;;;;9.45;5.82;;;;;;;13.56;65.25;93042.00;4937325;28;20031;-78
2021/05/30 06:41:17;;;;;;;8.57;5.68;;;;;;;13.57;64.95;93046.16;4972631;28;20051;-77
2021/05/30 06:43:44;;;;;;;9.70;5.70;;;;;;;13.83;65.41;93041.22;4969389;28;20512;-76
2021/05/30 06:46:10;;;;;;;9.07;5.15;;;;;;;13.88;64.27;93039.28;4973692;28;20041;-78
2021/05/30 06:48:36;;;;;;;8.40;5.05;;;;;;;14.03;63.87;93037.44;4956648;28;20129;-76
2021/05/30 06:51:13;;;;;;;7.90;5.10;;;;;;;14.30;63.23;93032.13;4955602;28;20046;-77
2021/05/30 06:53:39;;;;;;;9.40;5.13;;;;;;;14.66;61.41;93035.88;4955725;28;20055;-77
2021/05/30 06:56:05;;;;;;;7.88;4.82;;;;;;;14.86;61.34;93034.63;4972121;28;20622;-76
2021/05/30 06:58:31;;;;;;;10.25;5.50;;;;;;;15.01;60.22;93039.56;4955525;28;20502;-76
2021/05/30 07:00:56;;;;;;;8.68;5.30;;;;;;;15.07;59.25;93045.50;4944083;29;20054;-77
2021/05/30 07:03:22;;;;;;;8.13;4.63;;;;;;;15.04;60.06;93043.44;4920449;29;20077;-77
2021/05/30 07:05:48;;;;;;;8.18;5.10;;;;;;;15.29;58.22;93047.31;4945407;28;20082;-77
2021/05/30 07:08:13;;;;;;;7.65;4.47;;;;;;;15.43;57.98;93042.78;4955812;28;20051;-77
2021/05/30 07:10:39;;;;;;;7.35;4.70;;;;;;;15.59;57.49;93037.88;4970498;28;20054;-77
2021/05/30 07:13:05;;;;;;;8.52;4.25;;;;;;;15.31;58.34;93045.97;4973171;28;20053;-77
2021/05/30 07:15:30;;;;;;;8.43;4.80;;;;;;;15.54;57.58;93044.06;4956216;28;20114;-77
2021/05/30 07:17:56;;;;;;;8.15;4.68;;;;;;;15.71;57.58;93047.91;4973335;28;20055;-77
2021/05/30 07:20:22;;;;;;;6.68;3.97;;;;;;;15.92;57.04;93043.66;4973393;28;20043;-77
2021/05/30 07:22:48;;;;;;;6.57;4.15;;;;;;;15.78;56.40;93043.75;4973292;28;20062;-77
2021/05/30 07:25:14;;;;;;;6.97;4.07;;;;;;;15.41;58.04;93050.22;4988486;28;20137;-77
2021/05/30 07:27:40;;;;;;;9.07;4.57;;;;;;;14.86;58.80;93043.34;4956038;28;20649;-76
2021/05/30 07:30:07;;;;;;;6.75;4.32;;;;;;;14.90;58.30;93044.28;4973036;28;20066;-77
2021/05/30 07:32:33;;;;;;;8.73;4.57;;;;;;;14.74;59.13;93043.84;4973208;28;20446;-77
2021/05/30 07:34:59;;;;;;;8.10;4.50;;;;;;;15.05;58.33;93045.78;4973490;28;20051;-77
2021/05/30 07:37:24;;;;;;;6.22;3.92;;;;;;;15.15;57.69;93032.38;4973870;28;20043;-77
2021/05/30 07:39:50;;;;;;;6.22;3.75;;;;;;;15.63;56.83;93033.56;4955775;28;20053;-77
2021/05/30 07:42:15;;;;;;;7.60;4.10;;;;;;;15.77;56.17;93025.56;4973187;28;20050;-76
2021/05/30 07:44:41;;;;;;;6.95;4.03;;;;;;;16.14;56.10;93026.16;4972930;28;20051;-77
2021/05/30 07:47:07;;;;;;;9.68;4.45;;;;;;;15.91;53.76;93017.56;4973458;28;20058;-77
2021/05/30 07:49:33;;;;;;;6.28;3.88;;;;;;;15.86;55.74;93029.03;4973132;28;20038;-77
2021/05/30 07:52:00;;;;;;;7.53;4.05;;;;;;;15.78;55.51;93027.13;4972662;28;20051;-76
2021/05/30 07:54:26;;;;;;;8.27;4.15;;;;;;;16.01;53.59;93025.97;4956347;28;20043;-76
2021/05/30 07:56:52;;;;;;;7.32;3.30;;;;;;;16.24;55.93;93020.59;4971838;28;20055;-77
2021/05/30 07:59:19;;;;;;;6.43;3.65;;;;;;;15.77;57.34;93020.31;4955505;28;20046;-77
2021/05/30 08:01:44;;;;;;;6.78;4.10;;;;;;;15.49;59.16;93028.38;4972912;28;20043;-76
2021/05/30 08:04:10;;;;;;;8.18;3.80;;;;;;;15.51;57.10;93018.28;4987849;28;20054;-76
2021/05/30 08:06:36;;;;;;;7.07;4.20;;;;;;;15.44;55.03;93023.22;4972424;28;20050;-77
2021/05/30 08:09:03;;;;;;;9.50;3.78;;;;;;;15.58;54.20;93018.66;4970531;28;20051;-77
2021/05/30 08:11:29;;;;;;;5.53;3.30;;;;;;;15.62;54.54;93019.56;4972970;28;20101;-77
2021/05/30 08:13:55;;;;;;;7.40;4.32;;;;;;;15.88;52.55;93010.25;4972936;28;20053;-77
2021/05/30 08:16:21;;;;;;;6.60;3.78;;;;;;;16.60;52.88;93014.28;4972908;28;20046;-77
2021/05/30 08:18:47;;;;;;;6.63;3.95;;;;;;;16.38;51.55;93008.03;4972809;28;20038;-77
2021/05/30 08:21:13;;;;;;;5.28;3.30;;;;;;;16.65;52.67;93012.25;4972473;28;20151;-77
2021/05/30 08:23:42;;;;;;;8.32;3.53;;;;;;;17.05;52.50;93019.28;4988049;28;20109;-77
2021/05/30 08:26:09;;;;;;;8.50;3.45;;;;;;;17.70;49.91;93017.41;4956203;28;20410;-77
2021/05/30 08:28:36;;;;;;;8.57;3.83;;;;;;;16.38;52.17;93021.22;4955031;28;20497;-77
2021/05/30 08:31:02;;;;;;;6.75;3.65;;;;;;;16.61;50.41;93019.22;4955832;28;20043;-77
2021/05/30 08:33:29;;;;;;;8.10;3.80;;;;;;;16.14;54.64;93019.00;4973205;28;20047;-77
2021/05/30 08:35:55;;;;;;;7.47;3.70;;;;;;;16.15;54.14;93009.25;4972568;28;20070;-77
2021/05/30 08:38:22;;;;;;;6.97;3.50;;;;;;;16.30;56.47;93014.09;4975915;28;20042;-77
2021/05/30 08:40:49;;;;;;;6.00;3.70;;;;;;;17.16;54.90;93014.44;4976981;28;20043;-77
2021/05/30 08:43:15;;;;;;;5.63;3.00;;;;;;;16.21;56.43;93008.00;4976684;28;20039;-77
2021/05/30 08:45:45;;;;;;;5.35;3.35;;;;;;;15.48;58.08;93016.25;4976408;28;20062;-77
2021/05/30 08:48:11;;;;;;;6.78;4.25;;;;;;;15.69;57.48;93011.22;4977647;28;20045;-77
2021/05/30 08:50:37;;;;;;;6.82;3.88;;;;;;;16.10;56.06;93007.53;4975925;28;20509;-77
2021/05/30 08:53:05;;;;;;;7.15;3.47;;;;;;;15.86;58.68;93002.63;4976497;28;20061;-77
2021/05/30 08:55:30;;;;;;;6.28;3.53;;;;;;;15.87;58.25;92998.13;4976102;28;20142;-77
2021/05/30 08:57:57;;;;;;;6.38;3.72;;;;;;;15.96;56.21;92998.91;4975787;28;20114;-77
2021/05/30 09:00:28;;;;;;;8.23;4.30;;;;;;;16.21;56.04;92992.13;4975934;28;20046;-77
2021/05/30 09:03:14;;;;;;;10.70;4.57;;;;;;;16.84;52.51;93003.25;4976391;28;20049;-77
2021/05/30 09:05:41;;;;;;;6.07;3.70;;;;;;;16.23;55.60;92987.31;4975736;28;20584;-77
2021/05/30 09:08:08;;;;;;;6.32;3.65;;;;;;;16.33;55.99;92989.69;4975795;28;20401;-77
2021/05/30 09:10:35;;;;;;;5.78;3.65;;;;;;;16.62;55.58;92997.00;4956027;28;20375;-77
2021/05/30 09:13:07;;;;;;;6.15;3.10;;;;;;;16.44;56.19;92985.66;4975703;28;20421;-77
2021/05/30 09:18:21;;;;;;;6.72;3.33;;;;;;;16.33;56.59;92983.63;4975421;28;20118;-77
2021/05/30 09:21:12;;;;;;;7.68;3.60;;;;;;;16.40;56.72;92990.00;4975572;28;20043;-77
2021/05/30 09:23:43;;;;;;;7.70;3.70;;;;;;;16.33;57.21;93000.25;4975245;28;20505;-76
2021/05/30 09:26:15;;;;;;;9.70;3.50;;;;;;;16.34;57.76;92985.19;4975014;28;20050;-75
2021/05/30 09:29:18;;;;;;;6.85;3.70;;;;;;;16.20;56.69;92990.59;4974642;28;20386;-76
2021/05/30 09:31:54;;;;;;;4.90;3.15;;;;;;;16.79;55.83;92998.91;4975350;28;20047;-76
2021/05/30 09:34:24;;;;;;;7.40;3.70;;;;;;;16.64;55.60;92991.44;4957796;28;20082;-77
2021/05/30 09:36:53;;;;;;;5.85;3.40;;;;;;;16.92;55.60;92983.19;4975564;28;20058;-77
2021/05/30 09:39:41;;;;;;;7.95;3.30;;;;;;;16.89;55.53;92989.09;4974981;28;20047;-76
2021/05/30 09:42:26;;;;;;;7.88;3.22;;;;;;;16.83;54.80;92986.63;4975191;28;20133;-76
2021/05/30 09:44:59;;;;;;;5.88;3.42;;;;;;;16.99;55.19;92994.84;4974981;28;20046;-76
2021/05/30 09:47:38;;;;;;;8.88;4.10;;;;;;;16.40;53.79;92992.66;4974592;28;20568;-76
2021/05/30 09:50:06;;;;;;;8.20;3.40;;;;;;;16.32;55.76;92982.84;4973451;28;20125;-76
2021/05/30 09:52:43;;;;;;;6.05;4.00;;;;;;;16.74;56.23;92987.69;4974438;28;20031;-76
2021/05/30 09:55:16;;;;;;;7.65;3.97;;;;;;;17.28;51.62;92988.88;4974353;28;20043;-76
2021/05/30 09:58:20;;;;;;;5.57;3.75;;;;;;;16.66;53.12;92981.28;4974342;28;20043;-76
2021/05/30 10:00:52;;;;;;;6.40;3.58;;;;;;;16.56;56.08;92984.25;4966415;28;20502;-76
2021/05/30 10:03:21;;;;;;;8.10;3.80;;;;;;;17.02;54.44;92974.91;4974214;28;20042;-77
2021/05/30 10:05:47;;;;;;;6.30;3.58;;;;;;;17.33;54.27;92973.94;4974410;28;20046;-76
2021/05/30 10:08:18;;;;;;;8.50;3.55;;;;;;;17.11;51.84;92977.56;4974092;28;20539;-76
2021/05/30 10:10:45;;;;;;;8.90;6.00;;;;;;;17.27;53.21;92971.47;4952704;28;20066;-77
2021/05/30 10:13:11;;;;;;;8.38;3.50;;;;;;;17.24;52.53;92969.44;4954892;29;20545;-76
2021/05/30 10:15:38;;;;;;;8.90;4.20;;;;;;;17.75;53.00;92971.47;4954885;29;20047;-76
2021/05/30 10:18:43;;;;;;;5.85;3.40;;;;;;;17.65;52.09;92954.84;4937787;29;20486;-76
2021/05/30 10:21:15;;;;;;;5.57;3.47;;;;;;;17.49;51.08;92953.78;4932449;29;20058;-76
2021/05/30 10:23:41;;;;;;;10.13;4.50;;;;;;;18.17;52.50;92960.97;4954613;29;20051;-76
2021/05/30 10:26:23;;;;;;;9.05;4.15;;;;;;;18.95;49.94;92956.97;4955351;29;20486;-77
2021/05/30 10:28:49;;;;;;;;;;;;;;;19.17;49.81;92953.94;4955200;29;20039;-77
2021/05/30 10:31:23;;;;;;;9.60;3.85;;;;;;;18.59;48.08;92953.03;4954867;29;19917;-77
2021/05/30 10:34:10;;;;;;;6.30;3.50;;;;;;;18.93;48.14;92947.44;4955289;29;20043;-77
2021/05/30 10:36:42;;;;;;;9.60;4.65;;;;;;;18.91;48.09;92947.03;4955633;29;20102;-77
2021/05/30 10:39:33;;;;;;;8.10;4.63;;;;;;;17.72;50.34;92942.94;4955122;29;20067;-77
2021/05/30 10:42:10;;;;;;;7.13;4.07;;;;;;;17.88;50.27;92939.47;4947574;29;20055;-76
2021/05/30 10:45:06;;;;;;;8.18;3.80;;;;;;;17.93;50.68;92937.75;4937926;29;20509;-77
2021/05/30 10:47:40;;;;;;;8.20;3.90;;;;;;;18.28;49.90;92938.28;4938324;29;20071;-77
2021/05/30 10:50:20;;;;;;;6.65;3.65;;;;;;;18.06;52.21;92942.81;4955247;29;20046;-77
2021/05/30 10:52:48;;;;;;;6.78;4.25;;;;;;;17.83;51.18;92941.53;4954930;29;20047;-77
2021/05/30 10:55:27;;;;;;;6.95;4.03;;;;;;;18.57;48.93;92936.69;4954963;29;20463;-76
2021/05/30 10:57:53;;;;;;;8.57;3.80;;;;;;;19.53;49.51;92939.97;4955190;29;20375;-77
2021/05/30 11:00:19;;;;;;;10.45;4.00;;;;;;;20.27;47.81;92929.34;4954893;28;20039;-76
2021/05/30 11:03:10;;;;;;;5.85;3.72;;;;;;;18.85;48.21;92921.81;4955252;29;20293;-77
2021/05/30 11:05:47;;;;;;;5.78;3.30;;;;;;;18.51;49.06;92922.84;4954448;29;20043;-76
2021/05/30 11:10:50;;;;;;;8.48;3.67;;;;;;;17.91;51.99;92916.88;4952960;28;20077;-77
2021/05/30 11:13:16;;;;;;;5.43;3.50;;;;;;;18.00;48.68;92909.66;4954333;29;20035;-77
2021/05/30 11:15:42;;;;;;;5.30;3.17;;;;;;;17.49;50.83;92919.38;4954045;29;20399;-76
2021/05/30 11:18:18;;;;;;;6.57;3.60;;;;;;;17.04;52.34;92925.13;4936678;29;20047;-77
2021/05/30 11:20:45;;;;;;;7.60;3.70;;;;;;;17.07;50.78;92921.88;4953896;29;20067;-76
2021/05/30 11:23:15;;;;;;;5.75;3.45;;;;;;;16.83;51.88;92906.53;4954017;29;20039;-76
2021/05/30 11:25:48;;;;;;;13.65;3.70;;;;;;;16.41;53.86;92907.03;4953711;29;20074;-76
2021/05/30 11:28:16;;;;;;;5.82;3.28;;;;;;;16.48;53.60;92921.59;4952255;29;20043;-76
2021/05/30 11:30:42;;;;;;;6.43;3.72;;;;;;;16.50;53.58;92899.06;4953417;29;20039;-76
2021/05/30 11:33:10;;;;;;;6.28;3.70;;;;;;;16.39;53.50;92903.91;4953602;29;20047;-77
2021/05/30 11:35:36;;;;;;;6.50;3.90;;;;;;;16.32;54.34;92908.88;4953440;29;20043;-76
2021/05/30 11:38:03;;;;;;;6.63;3.35;;;;;;;16.33;53.83;92909.66;4953492;29;20042;-76
2021/05/30 11:40:29;;;;;;;5.90;3.17;;;;;;;16.38;53.18;92899.69;4953325;29;20035;-77